Аэропорт: Габала. Габала

ICAO: UBBQ

METAR:
2019-11-21 01:00:00
UBBQ 210100Z 26006KT 9999 OVC025 05/04 Q1025 R34/CLRD// NOSIG RMK MT OBSC
METAR:
Информация по данной станции не доступна